aviador You're here:

KHKY Decoded Metar

HICKORY in NC, USA
Report Time2017-11-23 21:53:00
UTC Time2017-11-23 22:18:52
Flight Rules vfr VFR
WindCalm
Visibility9999 m
Phenomena:N/A
Clouds:N/A
Expected CloudBase > 4,800 ft AGL from Temp-Dew spread
CeilingNone
Temp10°C (ISA -3)
Dew Point-2°C (43% RH)
AAT7.7°C
QNH1016 hPa
Density Alt817 ft
Elevation1,161 ft
Report Wrong Elevation
Raw Report
METAR KHKY 232153Z 00000KT 10SM CLR 10/M02 A3001 RMK AO2 SLP156 T01001022=

Extra information for KHKY:More info

Metar Taf Metar & Taf Last 4 Metars F.Rules Stats Wind Profile Meteogram Temp Stats Airport Information Weather charts Add Link Nearby VenuesMetar ALERT Operation Metar Decoded Social comments

AIRNAV info for KHKY